sensor_id;sensor_type;location;lat;lon;timestamp;pressure;altitude;pressure_sealevel;temperature;humidity
71239;BME280;61342;51.442;7.370;2022-08-07T02:15:42;100999.34;;;15.55;65.38
71239;BME280;61342;51.442;7.370;2022-08-07T02:41:25;100998.44;;;15.23;65.85
71239;BME280;61342;51.442;7.370;2022-08-07T05:20:31;100996.34;;;14.01;71.81
71239;BME280;61342;51.442;7.370;2022-08-07T05:22:11;101003.72;;;14.02;71.74
71239;BME280;61342;51.442;7.370;2022-08-07T05:24:37;100993.78;;;13.92;71.73
71239;BME280;61342;51.442;7.370;2022-08-07T05:25:40;101001.13;;;13.93;72.01
71239;BME280;61342;51.442;7.370;2022-08-07T05:26:42;100991.47;;;13.85;72.38
71239;BME280;61342;51.442;7.370;2022-08-07T05:27:46;101001.69;;;13.92;72.55
71239;BME280;61342;51.442;7.370;2022-08-07T05:28:52;100994.03;;;13.94;72.91
71239;BME280;61342;51.442;7.370;2022-08-07T05:29:55;100995.09;;;13.91;72.69
71239;BME280;61342;51.442;7.370;2022-08-07T05:30:57;101002.38;;;14.03;73.12
71239;BME280;61342;51.442;7.370;2022-08-07T05:31:59;101011.56;;;14.13;72.85
71239;BME280;61342;51.442;7.370;2022-08-07T05:33:03;101016.00;;;14.19;73.04
71239;BME280;61342;51.442;7.370;2022-08-07T05:34:06;101019.59;;;14.25;72.98
71239;BME280;61342;51.442;7.370;2022-08-07T05:35:09;101007.72;;;14.34;73.20
71239;BME280;61342;51.442;7.370;2022-08-07T05:36:11;100999.03;;;14.34;73.08
71239;BME280;61342;51.442;7.370;2022-08-07T05:37:14;101004.22;;;14.41;72.86
71239;BME280;61342;51.442;7.370;2022-08-07T05:38:15;101006.00;;;14.49;72.87
71239;BME280;61342;51.442;7.370;2022-08-07T05:39:18;101010.66;;;14.58;72.96
71239;BME280;61342;51.442;7.370;2022-08-07T05:40:21;100992.56;;;14.52;72.71
71239;BME280;61342;51.442;7.370;2022-08-07T05:41:22;101008.19;;;14.67;72.41
71239;BME280;61342;51.442;7.370;2022-08-07T05:42:23;101004.06;;;14.63;72.50
71239;BME280;61342;51.442;7.370;2022-08-07T05:43:29;101009.25;;;14.70;72.51
71239;BME280;61342;51.442;7.370;2022-08-07T05:44:34;101015.78;;;14.70;72.64
71239;BME280;61342;51.442;7.370;2022-08-07T05:45:35;101004.06;;;14.63;72.18
71239;BME280;61342;51.442;7.370;2022-08-07T05:46:39;101008.75;;;14.66;72.38
71239;BME280;61342;51.442;7.370;2022-08-07T05:47:41;101004.81;;;14.63;72.60
71239;BME280;61342;51.442;7.370;2022-08-07T05:48:42;101016.34;;;14.69;72.71
71239;BME280;61342;51.442;7.370;2022-08-07T05:49:45;100988.59;;;14.55;72.25
71239;BME280;61342;51.442;7.370;2022-08-07T05:50:47;101012.72;;;14.63;72.70
71239;BME280;61342;51.442;7.370;2022-08-07T05:51:48;101014.53;;;14.66;72.39
71239;BME280;61342;51.442;7.370;2022-08-07T05:52:48;101010.41;;;14.56;73.08
71239;BME280;61342;51.442;7.370;2022-08-07T05:53:49;101010.41;;;14.56;72.63
71239;BME280;61342;51.442;7.370;2022-08-07T05:54:50;101013.28;;;14.56;73.01
71239;BME280;61342;51.442;7.370;2022-08-07T05:55:52;101015.69;;;14.57;72.74
71239;BME280;61342;51.442;7.370;2022-08-07T05:56:54;101011.25;;;14.51;72.74
71239;BME280;61342;51.442;7.370;2022-08-07T05:57:56;101026.66;;;14.64;72.55
71239;BME280;61342;51.442;7.370;2022-08-07T05:59:01;101021.34;;;14.68;72.94
71239;BME280;61342;51.442;7.370;2022-08-07T06:00:06;101020.81;;;14.70;72.58
71239;BME280;61342;51.442;7.370;2022-08-07T06:01:09;101011.59;;;14.71;72.84
71239;BME280;61342;51.442;7.370;2022-08-07T06:02:13;101018.84;;;14.83;72.75
71239;BME280;61342;51.442;7.370;2022-08-07T06:03:17;101000.22;;;14.79;72.67
71239;BME280;61342;51.442;7.370;2022-08-07T06:04:21;101019.53;;;14.95;72.46
71239;BME280;61342;51.442;7.370;2022-08-07T06:05:23;101011.06;;;14.97;72.61
71239;BME280;61342;51.442;7.370;2022-08-07T06:06:28;101032.28;;;15.10;72.32
71239;BME280;61342;51.442;7.370;2022-08-07T06:07:28;101010.16;;;15.07;72.12
71239;BME280;61342;51.442;7.370;2022-08-07T06:08:29;101012.84;;;15.05;72.32
71239;BME280;61342;51.442;7.370;2022-08-07T06:09:31;101022.41;;;15.18;71.99
71239;BME280;61342;51.442;7.370;2022-08-07T06:10:32;101021.09;;;15.19;72.19
71239;BME280;61342;51.442;7.370;2022-08-07T06:11:33;101014.28;;;15.17;72.10
71239;BME280;61342;51.442;7.370;2022-08-07T06:12:39;101009.81;;;15.16;71.89
71239;BME280;61342;51.442;7.370;2022-08-07T06:13:39;101026.63;;;15.23;72.52
71239;BME280;61342;51.442;7.370;2022-08-07T06:14:41;101023.47;;;15.21;72.00
71239;BME280;61342;51.442;7.370;2022-08-07T06:15:42;101025.81;;;15.22;72.37
71239;BME280;61342;51.442;7.370;2022-08-07T06:16:44;101024.50;;;15.23;72.11
71239;BME280;61342;51.442;7.370;2022-08-07T06:17:46;101026.63;;;15.23;72.08
71239;BME280;61342;51.442;7.370;2022-08-07T06:18:46;101034.78;;;15.24;72.02
71239;BME280;61342;51.442;7.370;2022-08-07T06:19:48;101022.72;;;15.20;71.95
71239;BME280;61342;51.442;7.370;2022-08-07T06:20:49;101026.63;;;15.23;72.13
71239;BME280;61342;51.442;7.370;2022-08-07T06:21:52;101028.97;;;15.24;72.64
71239;BME280;61342;51.442;7.370;2022-08-07T06:22:53;101017.88;;;15.28;72.37
71239;BME280;61342;51.442;7.370;2022-08-07T06:23:54;101019.69;;;15.31;72.64
71239;BME280;61342;51.442;7.370;2022-08-07T06:24:57;101020.16;;;15.35;72.31
71239;BME280;61342;51.442;7.370;2022-08-07T06:25:59;101017.97;;;15.41;72.55
71239;BME280;61342;51.442;7.370;2022-08-07T06:26:59;101019.16;;;15.51;72.60
71239;BME280;61342;51.442;7.370;2022-08-07T06:28:02;101024.59;;;15.60;72.13
71239;BME280;61342;51.442;7.370;2022-08-07T06:29:02;101021.88;;;15.67;71.88
71239;BME280;61342;51.442;7.370;2022-08-07T06:30:04;101028.84;;;15.77;71.46
71239;BME280;61342;51.442;7.370;2022-08-07T06:31:04;101031.91;;;15.85;71.30
71239;BME280;61342;51.442;7.370;2022-08-07T06:32:05;101032.59;;;15.91;71.02
71239;BME280;61342;51.442;7.370;2022-08-07T06:33:05;101026.19;;;15.98;70.67
71239;BME280;61342;51.442;7.370;2022-08-07T06:34:06;101015.91;;;15.97;70.79
71239;BME280;61342;51.442;7.370;2022-08-07T06:35:07;101014.16;;;16.07;70.44
71239;BME280;61342;51.442;7.370;2022-08-07T06:36:08;101009.84;;;16.13;70.06
71239;BME280;61342;51.442;7.370;2022-08-07T06:37:09;101019.84;;;16.17;70.39
71239;BME280;61342;51.442;7.370;2022-08-07T06:38:09;101015.50;;;16.24;70.04
71239;BME280;61342;51.442;7.370;2022-08-07T06:39:10;101001.06;;;16.18;70.27
71239;BME280;61342;51.442;7.370;2022-08-07T06:40:11;101012.78;;;16.31;69.74
71239;BME280;61342;51.442;7.370;2022-08-07T06:41:17;101013.78;;;16.34;69.84
71239;BME280;61342;51.442;7.370;2022-08-07T06:42:25;101015.56;;;16.37;69.85
71239;BME280;61342;51.442;7.370;2022-08-07T06:43:26;101012.38;;;16.40;69.67
71239;BME280;61342;51.442;7.370;2022-08-07T06:44:29;101015.41;;;16.48;69.92
71239;BME280;61342;51.442;7.370;2022-08-07T06:45:30;101011.66;;;16.53;69.70
71239;BME280;61342;51.442;7.370;2022-08-07T06:46:32;101004.72;;;16.56;69.62
71239;BME280;61342;51.442;7.370;2022-08-07T06:47:33;101009.56;;;16.66;69.08
71239;BME280;61342;51.442;7.370;2022-08-07T06:48:34;100992.34;;;16.68;68.86
71239;BME280;61342;51.442;7.370;2022-08-07T06:49:35;101005.34;;;16.80;68.87
71239;BME280;61342;51.442;7.370;2022-08-07T06:50:38;101009.97;;;16.88;68.58
71239;BME280;61342;51.442;7.370;2022-08-07T06:51:41;101006.69;;;16.92;68.78
71239;BME280;61342;51.442;7.370;2022-08-07T06:52:46;100995.22;;;16.99;68.41
71239;BME280;61342;51.442;7.370;2022-08-07T06:53:48;100993.53;;;17.04;67.85
71239;BME280;61342;51.442;7.370;2022-08-07T06:54:50;101002.50;;;17.19;67.20
71239;BME280;61342;51.442;7.370;2022-08-07T06:55:53;101007.97;;;17.22;67.18
71239;BME280;61342;51.442;7.370;2022-08-07T06:56:54;100993.78;;;17.19;67.04
71239;BME280;61342;51.442;7.370;2022-08-07T06:58:00;101003.66;;;17.29;66.52
71239;BME280;61342;51.442;7.370;2022-08-07T06:59:01;100996.28;;;17.28;66.19
71239;BME280;61342;51.442;7.370;2022-08-07T07:00:03;101002.00;;;17.33;66.37
71239;BME280;61342;51.442;7.370;2022-08-07T07:01:08;101011.47;;;17.33;66.18
71239;BME280;61342;51.442;7.370;2022-08-07T07:02:17;101005.66;;;17.33;65.74
71239;BME280;61342;51.442;7.370;2022-08-07T07:03:18;101004.53;;;17.36;65.46
71239;BME280;61342;51.442;7.370;2022-08-07T07:04:19;101007.25;;;17.34;65.91
71239;BME280;61342;51.442;7.370;2022-08-07T07:05:20;101005.66;;;17.33;65.48
71239;BME280;61342;51.442;7.370;2022-08-07T07:06:21;101011.16;;;17.37;65.34
71239;BME280;61342;51.442;7.370;2022-08-07T07:07:21;101011.72;;;17.35;65.24
71239;BME280;61342;51.442;7.370;2022-08-07T07:08:27;101004.34;;;17.34;65.39
71239;BME280;61342;51.442;7.370;2022-08-07T07:09:29;101006.13;;;17.37;65.41
71239;BME280;61342;51.442;7.370;2022-08-07T07:10:32;101010.78;;;17.40;65.57
71239;BME280;61342;51.442;7.370;2022-08-07T07:11:32;101002.88;;;17.41;65.16
71239;BME280;61342;51.442;7.370;2022-08-07T07:12:40;101009.34;;;17.47;65.03
71239;BME280;61342;51.442;7.370;2022-08-07T07:13:46;100998.72;;;17.49;65.20
71239;BME280;61342;51.442;7.370;2022-08-07T07:15:08;101001.97;;;17.59;65.05
71239;BME280;61342;51.442;7.370;2022-08-07T07:16:17;100997.59;;;17.65;64.41
71239;BME280;61342;51.442;7.370;2022-08-07T07:17:25;100987.75;;;17.68;64.40
71239;BME280;61342;51.442;7.370;2022-08-07T07:18:47;100999.34;;;17.81;64.56
71239;BME280;61342;51.442;7.370;2022-08-07T07:19:52;100994.97;;;17.88;64.01
71239;BME280;61342;51.442;7.370;2022-08-07T07:21:00;101002.03;;;17.92;63.88
71239;BME280;61342;51.442;7.370;2022-08-07T07:22:02;100995.09;;;17.95;63.94
71239;BME280;61342;51.442;7.370;2022-08-07T07:23:05;100997.88;;;18.00;63.95
71239;BME280;61342;51.442;7.370;2022-08-07T07:24:07;100996.53;;;18.01;63.74
71239;BME280;61342;51.442;7.370;2022-08-07T07:25:11;100999.44;;;18.01;63.42
71239;BME280;61342;51.442;7.370;2022-08-07T07:26:16;101004.13;;;18.04;63.37
71239;BME280;61342;51.442;7.370;2022-08-07T07:27:20;101008.03;;;18.07;63.61
71239;BME280;61342;51.442;7.370;2022-08-07T07:28:35;101005.69;;;18.05;63.13
71239;BME280;61342;51.442;7.370;2022-08-07T07:29:39;101001.44;;;18.06;63.15
71239;BME280;61342;51.442;7.370;2022-08-07T07:30:46;101002.22;;;18.07;62.95
71239;BME280;61342;51.442;7.370;2022-08-07T07:31:49;101002.97;;;18.07;62.86
71239;BME280;61342;51.442;7.370;2022-08-07T07:32:56;101002.97;;;18.07;63.11
71239;BME280;61342;51.442;7.370;2022-08-07T07:34:04;101000.06;;;18.07;62.52
71239;BME280;61342;51.442;7.370;2022-08-07T07:35:09;100998.72;;;18.08;62.90
71239;BME280;61342;51.442;7.370;2022-08-07T07:36:10;100993.72;;;18.09;62.85
71239;BME280;61342;51.442;7.370;2022-08-07T07:37:11;100995.25;;;18.10;62.76
71239;BME280;61342;51.442;7.370;2022-08-07T07:38:13;100997.94;;;18.21;62.70
71239;BME280;61342;51.442;7.370;2022-08-07T07:39:15;100995.09;;;18.28;62.38
71239;BME280;61342;51.442;7.370;2022-08-07T07:40:18;100989.38;;;18.36;62.57
71239;BME280;61342;51.442;7.370;2022-08-07T07:41:21;100988.47;;;18.41;61.96
71239;BME280;61342;51.442;7.370;2022-08-07T07:42:24;100994.00;;;18.51;61.95
71239;BME280;61342;51.442;7.370;2022-08-07T07:43:26;100986.88;;;18.60;61.39
71239;BME280;61342;51.442;7.370;2022-08-07T07:44:30;100986.97;;;18.67;61.35
71239;BME280;61342;51.442;7.370;2022-08-07T07:45:32;100978.03;;;18.65;61.42
71239;BME280;61342;51.442;7.370;2022-08-07T07:46:34;100987.47;;;18.79;61.40
71239;BME280;61342;51.442;7.370;2022-08-07T07:47:40;100983.56;;;18.76;61.21
71239;BME280;61342;51.442;7.370;2022-08-07T07:48:42;100986.75;;;18.86;61.46
71239;BME280;61342;51.442;7.370;2022-08-07T07:49:45;100984.84;;;18.88;61.34
71239;BME280;61342;51.442;7.370;2022-08-07T07:50:49;100975.91;;;18.86;61.04
71239;BME280;61342;51.442;7.370;2022-08-07T07:51:51;100975.94;;;18.94;60.78
71239;BME280;61342;51.442;7.370;2022-08-07T07:52:53;100980.78;;;18.91;61.01
71239;BME280;61342;51.442;7.370;2022-08-07T07:53:56;100978.50;;;18.97;60.93
71239;BME280;61342;51.442;7.370;2022-08-07T07:54:58;100979.50;;;19.00;60.59
71239;BME280;61342;51.442;7.370;2022-08-07T07:55:59;100977.16;;;18.98;60.48
71239;BME280;61342;51.442;7.370;2022-08-07T07:57:01;100984.94;;;19.03;60.48
71239;BME280;61342;51.442;7.370;2022-08-07T07:58:03;100977.34;;;19.00;60.49
71239;BME280;61342;51.442;7.370;2022-08-07T07:59:04;100965.91;;;19.02;60.27
71239;BME280;61342;51.442;7.370;2022-08-07T08:00:06;100974.03;;;19.16;60.26
71239;BME280;61342;51.442;7.370;2022-08-07T08:01:09;100970.94;;;19.22;60.35
71239;BME280;61342;51.442;7.370;2022-08-07T08:02:10;100970.78;;;19.27;59.86
71239;BME280;61342;51.442;7.370;2022-08-07T08:03:13;100954.47;;;19.32;59.71
71239;BME280;61342;51.442;7.370;2022-08-07T08:04:16;100972.06;;;19.47;59.47
71239;BME280;61342;51.442;7.370;2022-08-07T08:05:20;100964.72;;;19.53;58.72
71239;BME280;61342;51.442;7.370;2022-08-07T08:06:23;100955.81;;;19.59;58.91
71239;BME280;61342;51.442;7.370;2022-08-07T08:07:25;100966.38;;;19.69;58.73
71239;BME280;61342;51.442;7.370;2022-08-07T08:08:28;100961.34;;;19.77;57.90
71239;BME280;61342;51.442;7.370;2022-08-07T08:09:31;100958.81;;;19.81;57.64
71239;BME280;61342;51.442;7.370;2022-08-07T08:10:32;100962.16;;;19.85;57.28
71239;BME280;61342;51.442;7.370;2022-08-07T08:11:33;100969.41;;;19.91;56.64
71239;BME280;61342;51.442;7.370;2022-08-07T08:12:35;100963.19;;;19.95;56.73
71239;BME280;61342;51.442;7.370;2022-08-07T08:13:44;100956.75;;;19.96;56.81
71239;BME280;61342;51.442;7.370;2022-08-07T08:14:46;100960.66;;;19.99;56.50
71239;BME280;61342;51.442;7.370;2022-08-07T08:15:47;100956.03;;;20.03;56.14
71239;BME280;61342;51.442;7.370;2022-08-07T08:16:50;100961.47;;;20.07;56.16
71239;BME280;61342;51.442;7.370;2022-08-07T08:17:51;100962.44;;;20.09;55.78
71239;BME280;61342;51.442;7.370;2022-08-07T08:18:54;100956.44;;;20.07;56.08
71239;BME280;61342;51.442;7.370;2022-08-07T08:19:58;100961.50;;;20.14;56.10
71239;BME280;61342;51.442;7.370;2022-08-07T08:21:02;100964.81;;;20.18;55.60
71239;BME280;61342;51.442;7.370;2022-08-07T08:22:04;100965.22;;;20.22;55.24
71239;BME280;61342;51.442;7.370;2022-08-07T08:23:26;100961.53;;;20.29;54.45
71239;BME280;61342;51.442;7.370;2022-08-07T08:24:47;100961.19;;;20.40;54.02
71239;BME280;61342;51.442;7.370;2022-08-07T08:26:07;100962.56;;;20.46;53.66
71239;BME280;61342;51.442;7.370;2022-08-07T08:27:32;100965.66;;;20.63;53.39
71239;BME280;61342;51.442;7.370;2022-08-07T08:28:42;100960.09;;;20.73;53.12
71239;BME280;61342;51.442;7.370;2022-08-07T08:29:48;100952.28;;;20.83;52.32
71239;BME280;61342;51.442;7.370;2022-08-07T08:30:55;100956.19;;;20.92;51.96
71239;BME280;61342;51.442;7.370;2022-08-07T08:31:57;100946.44;;;20.97;51.81
71239;BME280;61342;51.442;7.370;2022-08-07T08:33:03;100951.47;;;21.12;51.03
71239;BME280;61342;51.442;7.370;2022-08-07T08:34:07;100955.16;;;21.27;50.75
71239;BME280;61342;51.442;7.370;2022-08-07T08:35:09;100953.00;;;21.42;50.93
71239;BME280;61342;51.442;7.370;2022-08-07T08:36:11;100934.25;;;21.53;50.28
71239;BME280;61342;51.442;7.370;2022-08-07T08:37:13;100945.09;;;21.75;49.42
71239;BME280;61342;51.442;7.370;2022-08-07T08:38:17;100936.63;;;21.94;49.15
71239;BME280;61342;51.442;7.370;2022-08-07T08:39:20;100939.41;;;22.23;48.20
71239;BME280;61342;51.442;7.370;2022-08-07T08:40:35;100947.66;;;22.49;47.57
71239;BME280;61342;51.442;7.370;2022-08-07T08:42:27;100940.97;;;22.80;47.00
71239;BME280;61342;51.442;7.370;2022-08-07T08:43:36;100938.50;;;23.18;46.84
71239;BME280;61342;51.442;7.370;2022-08-07T08:44:46;100935.09;;;23.63;45.63
71239;BME280;61342;51.442;7.370;2022-08-07T08:47:59;100938.19;;;24.41;43.69
71239;BME280;61342;51.442;7.370;2022-08-07T08:48:45;100940.25;;;24.84;42.25
71239;BME280;61342;51.442;7.370;2022-08-07T08:50:18;100938.38;;;25.15;40.79
71239;BME280;61342;51.442;7.370;2022-08-07T08:51:28;100939.84;;;25.52;39.99
71239;BME280;61342;51.442;7.370;2022-08-07T08:52:34;100933.22;;;25.79;39.76
71239;BME280;61342;51.442;7.370;2022-08-07T08:53:43;100939.69;;;26.06;38.68
71239;BME280;61342;51.442;7.370;2022-08-07T08:54:54;100924.94;;;26.25;37.81
71239;BME280;61342;51.442;7.370;2022-08-07T08:56:25;100924.25;;;26.55;37.83
71239;BME280;61342;51.442;7.370;2022-08-07T09:00:09;100921.81;;;27.42;36.08
71239;BME280;61342;51.442;7.370;2022-08-07T09:01:43;100920.41;;;27.64;35.24
71239;BME280;61342;51.442;7.370;2022-08-07T09:02:51;100922.94;;;27.99;36.09
71239;BME280;61342;51.442;7.370;2022-08-07T09:04:00;100920.50;;;28.28;34.71
71239;BME280;61342;51.442;7.370;2022-08-07T09:05:12;100912.28;;;28.50;33.92
71239;BME280;61342;51.442;7.370;2022-08-07T09:06:31;100915.03;;;28.68;33.73
71239;BME280;61342;51.442;7.370;2022-08-07T09:07:48;100912.75;;;28.90;33.87
71239;BME280;61342;51.442;7.370;2022-08-07T09:09:06;100905.16;;;29.10;33.48
71239;BME280;61342;51.442;7.370;2022-08-07T09:10:35;100909.03;;;29.35;32.81
71239;BME280;61342;51.442;7.370;2022-08-07T09:11:54;100909.84;;;29.60;32.10
71239;BME280;61342;51.442;7.370;2022-08-07T09:13:08;100912.91;;;29.85;31.74
71239;BME280;61342;51.442;7.370;2022-08-07T09:15:42;100911.97;;;30.19;31.76
71239;BME280;61342;51.442;7.370;2022-08-07T09:19:29;100907.34;;;30.79;30.46
71239;BME280;61342;51.442;7.370;2022-08-07T09:22:44;100907.88;;;31.13;29.94
71239;BME280;61342;51.442;7.370;2022-08-07T09:26:26;100898.06;;;31.64;28.19
71239;BME280;61342;51.442;7.370;2022-08-07T09:28:58;100898.44;;;31.99;27.94
71239;BME280;61342;51.442;7.370;2022-08-07T09:30:05;100897.53;;;32.10;27.37
71239;BME280;61342;51.442;7.370;2022-08-07T09:31:13;100900.34;;;32.21;27.26
71239;BME280;61342;51.442;7.370;2022-08-07T09:34:02;100910.75;;;32.36;26.52
71239;BME280;61342;51.442;7.370;2022-08-07T09:36:44;100898.81;;;32.65;25.39
71239;BME280;61342;51.442;7.370;2022-08-07T09:40:23;100902.97;;;32.88;24.48
71239;BME280;61342;51.442;7.370;2022-08-07T09:41:36;100895.28;;;32.99;24.53
71239;BME280;61342;51.442;7.370;2022-08-07T09:42:57;100891.00;;;33.02;24.31
71239;BME280;61342;51.442;7.370;2022-08-07T09:45:42;100891.16;;;33.21;24.30
71239;BME280;61342;51.442;7.370;2022-08-07T09:48:08;100887.66;;;33.42;23.68
71239;BME280;61342;51.442;7.370;2022-08-07T09:50:29;100884.38;;;33.51;23.73
71239;BME280;61342;51.442;7.370;2022-08-07T09:52:58;100883.56;;;33.66;24.07
71239;BME280;61342;51.442;7.370;2022-08-07T09:54:01;100879.47;;;33.75;23.33
71239;BME280;61342;51.442;7.370;2022-08-07T09:55:12;100879.81;;;33.83;23.79
71239;BME280;61342;51.442;7.370;2022-08-07T09:57:16;100876.00;;;33.81;23.77
71239;BME280;61342;51.442;7.370;2022-08-07T09:58:13;100879.03;;;33.98;23.60
71239;BME280;61342;51.442;7.370;2022-08-07T10:00:52;100878.97;;;34.13;22.75
71239;BME280;61342;51.442;7.370;2022-08-07T10:03:35;100870.50;;;34.25;22.37
71239;BME280;61342;51.442;7.370;2022-08-07T10:06:09;100871.44;;;34.30;22.39
71239;BME280;61342;51.442;7.370;2022-08-07T10:07:36;100876.81;;;34.33;22.66
71239;BME280;61342;51.442;7.370;2022-08-07T10:15:53;100859.38;;;34.62;22.18
71239;BME280;61342;51.442;7.370;2022-08-07T10:18:30;100861.31;;;34.73;21.58
71239;BME280;61342;51.442;7.370;2022-08-07T10:19:59;100861.16;;;34.69;22.04
71239;BME280;61342;51.442;7.370;2022-08-07T10:24:37;100853.03;;;34.72;22.46
71239;BME280;61342;51.442;7.370;2022-08-07T10:26:02;100858.41;;;34.75;22.13
71239;BME280;61342;51.442;7.370;2022-08-07T10:32:26;100857.72;;;34.77;22.60
71239;BME280;61342;51.442;7.370;2022-08-07T10:35:59;100844.78;;;34.90;22.35
71239;BME280;61342;51.442;7.370;2022-08-07T10:41:11;100848.81;;;34.96;21.81
71239;BME280;61342;51.442;7.370;2022-08-07T10:43:33;100839.75;;;34.94;22.49
71239;BME280;61342;51.442;7.370;2022-08-07T10:45:57;100848.28;;;35.02;22.50
71239;BME280;61342;51.442;7.370;2022-08-07T10:47:20;100837.59;;;34.97;22.29
71239;BME280;61342;51.442;7.370;2022-08-07T10:49:02;100840.00;;;35.00;22.18
71239;BME280;61342;51.442;7.370;2022-08-07T10:50:01;100843.97;;;35.07;22.45
71239;BME280;61342;51.442;7.370;2022-08-07T10:51:10;100844.59;;;35.03;22.50
71239;BME280;61342;51.442;7.370;2022-08-07T10:54:20;100834.50;;;34.75;21.81
71239;BME280;61342;51.442;7.370;2022-08-07T10:55:34;100839.84;;;34.79;21.65
71239;BME280;61342;51.442;7.370;2022-08-07T10:58:55;100836.88;;;34.79;22.63
71239;BME280;61342;51.442;7.370;2022-08-07T11:00:11;100826.22;;;34.74;22.25
71239;BME280;61342;51.442;7.370;2022-08-07T11:01:24;100821.84;;;34.77;22.60
71239;BME280;61342;51.442;7.370;2022-08-07T11:02:45;100823.38;;;34.78;22.48
71239;BME280;61342;51.442;7.370;2022-08-07T11:06:49;100812.03;;;34.94;22.41
71239;BME280;61342;51.442;7.370;2022-08-07T11:09:41;100815.44;;;35.04;21.89
71239;BME280;61342;51.442;7.370;2022-08-07T11:11:12;100806.56;;;35.06;21.64
71239;BME280;61342;51.442;7.370;2022-08-07T11:12:15;100802.25;;;35.11;21.67
71239;BME280;61342;51.442;7.370;2022-08-07T11:14:29;100810.69;;;35.16;22.20
71239;BME280;61342;51.442;7.370;2022-08-07T11:15:38;100803.91;;;35.15;21.19
71239;BME280;61342;51.442;7.370;2022-08-07T11:16:57;100806.69;;;35.10;21.68
71239;BME280;61342;51.442;7.370;2022-08-07T11:19:19;100793.50;;;35.16;21.40
71239;BME280;61342;51.442;7.370;2022-08-07T11:22:24;100800.94;;;35.15;22.01
71239;BME280;61342;51.442;7.370;2022-08-07T11:25:04;100794.88;;;35.13;21.92
71239;BME280;61342;51.442;7.370;2022-08-07T11:26:13;100799.72;;;35.22;21.85
71239;BME280;61342;51.442;7.370;2022-08-07T11:27:26;100796.72;;;35.22;21.90
71239;BME280;61342;51.442;7.370;2022-08-07T11:28:35;100795.25;;;35.23;21.39
71239;BME280;61342;51.442;7.370;2022-08-07T11:33:56;100790.00;;;35.03;21.68
71239;BME280;61342;51.442;7.370;2022-08-07T11:35:08;100777.34;;;35.04;21.21
71239;BME280;61342;51.442;7.370;2022-08-07T11:36:21;100791.66;;;35.08;22.05
71239;BME280;61342;51.442;7.370;2022-08-07T11:39:19;100788.59;;;35.06;21.72
71239;BME280;61342;51.442;7.370;2022-08-07T11:41:38;100790.66;;;35.20;21.29
71239;BME280;61342;51.442;7.370;2022-08-07T11:42:57;100799.06;;;35.26;21.57
71239;BME280;61342;51.442;7.370;2022-08-07T11:44:11;100790.75;;;35.22;20.93
71239;BME280;61342;51.442;7.370;2022-08-07T11:45:27;100783.13;;;35.19;21.52
71239;BME280;61342;51.442;7.370;2022-08-07T11:52:51;100784.06;;;35.05;21.41
71239;BME280;61342;51.442;7.370;2022-08-07T11:57:19;100774.25;;;35.02;21.80
71239;BME280;61342;51.442;7.370;2022-08-07T11:58:39;100779.47;;;35.02;21.16
71239;BME280;61342;51.442;7.370;2022-08-07T12:01:30;100770.50;;;35.02;21.31
71239;BME280;61342;51.442;7.370;2022-08-07T12:05:25;100771.16;;;35.19;21.27
71239;BME280;61342;51.442;7.370;2022-08-07T12:07:32;100773.50;;;35.21;20.79
71239;BME280;61342;51.442;7.370;2022-08-07T12:08:38;100771.00;;;35.15;20.54
71239;BME280;61342;51.442;7.370;2022-08-07T12:09:49;100766.22;;;35.07;20.67
71239;BME280;61342;51.442;7.370;2022-08-07T12:11:14;100761.31;;;34.96;20.72
71239;BME280;61342;51.442;7.370;2022-08-07T12:12:27;100770.38;;;34.98;20.86
71239;BME280;61342;51.442;7.370;2022-08-07T12:13:45;100765.22;;;35.00;20.73
71239;BME280;61342;51.442;7.370;2022-08-07T12:14:58;100765.09;;;34.96;21.11
71239;BME280;61342;51.442;7.370;2022-08-07T12:16:10;100768.81;;;34.97;20.65
71239;BME280;61342;51.442;7.370;2022-08-07T12:17:16;100777.88;;;34.99;21.24
71239;BME280;61342;51.442;7.370;2022-08-07T12:18:31;100773.34;;;34.98;21.34
71239;BME280;61342;51.442;7.370;2022-08-07T12:20:07;100776.56;;;34.84;21.05
71239;BME280;61342;51.442;7.370;2022-08-07T12:22:41;100772.94;;;34.88;21.28
71239;BME280;61342;51.442;7.370;2022-08-07T12:23:45;100766.59;;;34.97;21.35
71239;BME280;61342;51.442;7.370;2022-08-07T12:26:23;100763.97;;;34.88;21.28
71239;BME280;61342;51.442;7.370;2022-08-07T12:27:32;100770.03;;;34.90;20.85
71239;BME280;61342;51.442;7.370;2022-08-07T12:29:50;100771.41;;;34.87;21.13
71239;BME280;61342;51.442;7.370;2022-08-07T12:30:56;100761.59;;;34.84;20.71
71239;BME280;61342;51.442;7.370;2022-08-07T12:32:14;100758.16;;;34.72;21.46
71239;BME280;61342;51.442;7.370;2022-08-07T12:33:19;100762.06;;;34.77;20.87
71239;BME280;61342;51.442;7.370;2022-08-07T12:34:21;100759.06;;;34.77;21.01
71239;BME280;61342;51.442;7.370;2022-08-07T12:35:24;100758.97;;;34.75;21.57
71239;BME280;61342;51.442;7.370;2022-08-07T12:36:27;100753.00;;;34.75;21.20
71239;BME280;61342;51.442;7.370;2022-08-07T12:37:28;100755.94;;;34.73;21.05
71239;BME280;61342;51.442;7.370;2022-08-07T12:38:32;100752.09;;;34.70;20.75
71239;BME280;61342;51.442;7.370;2022-08-07T12:39:34;100757.22;;;34.68;21.32
71239;BME280;61342;51.442;7.370;2022-08-07T12:40:40;100748.19;;;34.66;20.87
71239;BME280;61342;51.442;7.370;2022-08-07T12:41:42;100750.78;;;34.56;20.84
71239;BME280;61342;51.442;7.370;2022-08-07T12:42:43;100747.63;;;34.52;21.47
71239;BME280;61342;51.442;7.370;2022-08-07T12:43:48;100751.31;;;34.51;20.80
71239;BME280;61342;51.442;7.370;2022-08-07T12:44:50;100751.22;;;34.49;21.18
71239;BME280;61342;51.442;7.370;2022-08-07T12:49:11;100741.91;;;34.21;21.29
71239;BME280;61342;51.442;7.370;2022-08-07T12:51:35;100749.72;;;34.30;21.76